• Join FlightAware (Why Join?)
  • Login
  • US Flag 
04:43AM EST


 

Airport Tracker/Info


-or-


 

Live Flight TrackerFlight Track Log ✈ SKW4730 ✈ 15-Jul-2013 ✈ KLGB - KSLC

Flight Track Log - Related Links

Times and Time Zones

All times are in EDT time to prevent confusion due to time zone crossing. See the SKW4730 flight status page for this flight to view local times or setup timezone preferences in your user account.

Time Position Orientation Groundspeed Altitude Reporting Facility
EDT Latitude Longitude Course Direction KTS MPH feet Rate Location/Type
04:44PM 33.8431 -118.1847 18° North 159 183 2,000  Level Los Angeles Center
04:45PM 33.7986 -118.2203 214° Southwest 223 257 4,200 2,340 Climbing Los Angeles Center
04:46PM 33.6132 -118.1694 107° East  Level FlightAware Approximate
04:46PM 33.7356 -118.2297 187° South 225 259 6,900  Level Los Angeles Center
04:47PM 33.5850 -118.0565 107° East  Level FlightAware Approximate
04:47PM 33.6617 -118.2419 188° South 256 295 8,600  Level Los Angeles Center
04:48PM 33.6719 -118.0213 18° North  Level FlightAware Approximate
04:48PM 33.5911 -118.2228 167° South 282 325 11,000  Level Los Angeles Center
04:49PM 33.7650 -117.9840 18° North  Level FlightAware Approximate
04:49PM 33.6250 -118.1061 71° East 338 389 13,300  Level Los Angeles Center
04:50PM 33.7161 -118.0475 28° Northeast 375 432 15,500 2,160 Climbing Los Angeles Center
04:51PM 33.8117 -117.9922 26° Northeast 384 442 17,800 2,040 Climbing Los Angeles Center
04:52PM 33.9083 -117.9353 26° Northeast 388 447 19,800 1,800 Climbing Los Angeles Center
04:53PM 34.0175 -117.8422 35° Northeast 402 463 21,600 1,200 Climbing Los Angeles Center
04:54PM 34.1119 -117.7522 38° Northeast 421 484 22,400 1,200 Climbing Los Angeles Center
04:55PM 34.1928 -117.6381 49° Northeast 444 511 24,100 1,200 Climbing Los Angeles Center
04:56PM 34.2756 -117.5256 48° Northeast 448 516 24,900 900 Climbing Los Angeles Center
04:57PM 34.3614 -117.4075 49° Northeast 464 534 26,000 1,200 Climbing Los Angeles Center
04:58PM 34.4528 -117.2814 49° Northeast 476 548 27,400 1,200 Climbing Los Angeles Center
04:59PM 34.5394 -117.1614 49° Northeast 477 549 28,600 1,620 Climbing Los Angeles Center
05:00PM 34.6428 -117.0186 49° Northeast 471 542 30,800 1,740 Climbing Los Angeles Center
05:01PM 34.7264 -116.9031 49° Northeast 462 532 32,200 1,020 Climbing Los Angeles Center
05:02PM 34.8089 -116.7875 49° Northeast 456 525 33,000 360 Climbing Los Angeles Center
05:03PM 34.8947 -116.6667 49° Northeast 473 544 33,000  Level Los Angeles Center
05:04PM 34.9878 -116.5406 48° Northeast 495 570 33,000  Level Los Angeles Center
05:05PM 35.1053 -116.3958 45° Northeast 501 577 33,000  Level Los Angeles Center
05:06PM 35.1986 -116.2789 46° Northeast 489 563 33,000  Level Los Angeles Center
05:07PM 35.2903 -116.1633 46° Northeast 477 549 33,000  Level Los Angeles Center
05:08PM 35.3822 -116.0458 46° Northeast 478 550 33,000  Level Los Angeles Center
05:09PM 35.4767 -115.9306 45° Northeast 480 552 33,000  Level Los Angeles Center
05:10PM 35.5850 -115.7925 46° Northeast 478 550 33,000  Level Los Angeles Center
05:12PM 35.6781 -115.6728 46° Northeast 481 554 33,000  Level Los Angeles Center
05:13PM 35.7714 -115.5547 46° Northeast 483 556 33,000  Level Los Angeles Center
05:14PM 35.8647 -115.4344 46° Northeast 486 559 33,000 240 Level Los Angeles Center
05:15PM 35.9767 -115.2914 46° Northeast 486 559 33,500 480 Climbing Los Angeles Center
05:16PM 36.0667 -115.1747 46° Northeast 475 547 34,000 240 Climbing Los Angeles Center
05:17PM 36.1628 -115.0514 46° Northeast 496 571 34,000  Level Los Angeles Center
05:18PM 36.2619 -114.9278 45° Northeast 507 583 34,000  Level Los Angeles Center
05:19PM 36.3589 -114.8039 46° Northeast 504 580 34,000  Level Los Angeles Center
05:20PM 36.4742 -114.6556 46° Northeast 500 575 34,000  Level Los Angeles Center
05:21PM 36.5753 -114.5483 40° Northeast 486 559 34,000  Level Los Angeles Center
05:22PM 36.6858 -114.4558 34° Northeast 480 552 34,000  Level Los Angeles Center
05:23PM 36.7961 -114.3633 34° Northeast 478 550 34,100 420 Climbing Los Angeles Center
05:24PM 36.9086 -114.2692 34° Northeast 483 556 34,900 420 Climbing Los Angeles Center
05:25PM 37.0225 -114.1719 34° Northeast 490 564 35,000  Climbing Los Angeles Center
05:26PM 37.1639 -114.0528 34° Northeast 505 581 35,000  Level Los Angeles Center
05:27PM 37.2822 -113.9519 34° Northeast 512 589 35,000  Level Los Angeles Center
05:28PM 37.3961 -113.8547 34° Northeast 500 575 35,000  Level Los Angeles Center
05:29PM 37.5103 -113.7597 33° Northeast 492 566 35,000  Level Los Angeles Center
05:30PM 37.6222 -113.6608 35° Northeast 490 564 35,000  Level Los Angeles Center
05:31PM 37.7353 -113.5631 34° Northeast 490 564 35,000  Level Los Angeles Center
05:32PM 37.8719 -113.4453 34° Northeast 492 566 35,000 -60 Level Los Angeles Center
05:33PM 37.9861 -113.3444 35° Northeast 495 570 34,900 -300 Descending Los Angeles Center
05:34PM 38.1011 -113.2433 35° Northeast 500 575 34,400 -540 Descending Los Angeles Center
05:35PM 38.2144 -113.1417 35° Northeast 497 572 33,900 -540 Descending Los Angeles Center
05:36PM 38.3489 -113.0250 34° Northeast 490 564 33,300 -420 Descending Salt Lake Center
05:38PM 38.4753 -112.9506 25° Northeast 497 572 33,000 -180 Descending Salt Lake Center
05:39PM 38.6053 -112.8828 22° Northeast 502 578 33,000 -300 Level Salt Lake Center
05:40PM 38.7317 -112.8150 23° Northeast 496 571 32,400 -720 Descending Salt Lake Center
05:41PM 38.8539 -112.7492 23° Northeast 480 552 31,600 -720 Descending Salt Lake Center
05:42PM 38.9769 -112.6828 23° Northeast 479 551 31,000 -420 Descending Salt Lake Center
05:43PM 39.1286 -112.6011 23° Northeast 490 564 30,800 -1,140 Descending Salt Lake Center
05:44PM 39.2450 -112.5361 23° Northeast 502 578 28,700 -2,280 Descending Salt Lake Center
05:45PM 39.3725 -112.4661 23° Northeast 501 577 26,200 -2,700 Descending Salt Lake Center
05:46PM 39.5108 -112.3872 24° Northeast 452 520 23,200 -2,520 Descending Salt Lake Center
05:47PM 39.6183 -112.3256 24° Northeast 424 488 21,000 -2,160 Descending Salt Lake Center
05:48PM 39.7178 -112.2642 25° Northeast 401 461 18,800 -2,160 Descending Salt Lake Center
05:49PM 39.8022 -112.1858 35° Northeast 373 429 16,600 -1,920 Descending Salt Lake Center
05:49PM 39.8633 -112.1531 22° Northeast 353 406 15,700 -1,080 Descending Salt Lake Center
05:50PM 39.9467 -112.1281 13° North 335 386 15,000 -660 Descending Salt Lake Center
05:51PM 39.9967 -112.1019 22° Northeast 326 375 14,800 -960 Descending Salt Lake Center
05:52PM 40.0772 -112.0550 24° Northeast 312 359 13,500 -1,200 Descending Salt Lake Center
05:53PM 40.1558 -112.0081 25° Northeast 313 360 12,400 -1,080 Descending Salt Lake Center
05:54PM 40.2314 -111.9619 25° Northeast 299 344 11,300 -720 Descending Salt Lake Center
05:55PM 40.3119 -111.9364 14° North 299 344 11,000 -180 Descending Salt Lake Center
05:56PM 40.3944 -111.9281 North 295 339 11,000 -540 Level Salt Lake Center
05:57PM 40.4711 -111.9372 355° North 272 313 10,000 -1,320 Descending Salt Lake Center
05:58PM 40.5611 -111.9497 354° North 272 313 8,300 -1,680 Descending Salt Lake Center